sensor_id;sensor_type;location;lat;lon;timestamp;P1;durP1;ratioP1;P2;durP2;ratioP2
54502;SDS011;40411;50.090;21.954;2023-07-13T00:00:25;17.83;;;11.27;;
54502;SDS011;40411;50.090;21.954;2023-07-13T00:03:12;17.25;;;11.30;;
54502;SDS011;40411;50.090;21.954;2023-07-13T00:05:39;19.55;;;11.85;;
54502;SDS011;40411;50.090;21.954;2023-07-13T00:08:07;18.55;;;12.10;;
54502;SDS011;40411;50.090;21.954;2023-07-13T00:10:33;18.05;;;12.65;;
54502;SDS011;40411;50.090;21.954;2023-07-13T00:12:59;17.13;;;12.35;;
54502;SDS011;40411;50.090;21.954;2023-07-13T00:15:26;20.77;;;12.23;;
54502;SDS011;40411;50.090;21.954;2023-07-13T00:17:53;15.88;;;11.65;;
54502;SDS011;40411;50.090;21.954;2023-07-13T00:20:23;19.63;;;11.93;;
54502;SDS011;40411;50.090;21.954;2023-07-13T00:22:53;18.48;;;12.15;;
54502;SDS011;40411;50.090;21.954;2023-07-13T00:25:19;17.38;;;11.52;;
54502;SDS011;40411;50.090;21.954;2023-07-13T00:27:47;19.83;;;12.35;;
54502;SDS011;40411;50.090;21.954;2023-07-13T00:30:14;18.58;;;13.35;;
54502;SDS011;40411;50.090;21.954;2023-07-13T00:32:41;23.33;;;13.57;;
54502;SDS011;40411;50.090;21.954;2023-07-13T00:35:06;20.08;;;13.02;;
54502;SDS011;40411;50.090;21.954;2023-07-13T00:37:33;18.50;;;11.95;;
54502;SDS011;40411;50.090;21.954;2023-07-13T00:40:02;19.58;;;11.88;;
54502;SDS011;40411;50.090;21.954;2023-07-13T00:42:29;17.00;;;11.57;;
54502;SDS011;40411;50.090;21.954;2023-07-13T00:47:39;29.98;;;16.10;;
54502;SDS011;40411;50.090;21.954;2023-07-13T00:50:06;51.60;;;24.35;;
54502;SDS011;40411;50.090;21.954;2023-07-13T00:52:35;49.83;;;24.63;;
54502;SDS011;40411;50.090;21.954;2023-07-13T00:55:03;47.17;;;24.33;;
54502;SDS011;40411;50.090;21.954;2023-07-13T00:57:30;51.95;;;23.15;;
54502;SDS011;40411;50.090;21.954;2023-07-13T00:59:57;35.72;;;19.75;;
54502;SDS011;40411;50.090;21.954;2023-07-13T01:02:32;43.67;;;21.60;;
54502;SDS011;40411;50.090;21.954;2023-07-13T01:04:59;33.30;;;18.23;;
54502;SDS011;40411;50.090;21.954;2023-07-13T01:07:27;39.88;;;22.35;;
54502;SDS011;40411;50.090;21.954;2023-07-13T01:09:56;51.50;;;25.60;;
54502;SDS011;40411;50.090;21.954;2023-07-13T01:12:22;50.70;;;26.40;;
54502;SDS011;40411;50.090;21.954;2023-07-13T01:14:48;61.45;;;27.77;;
54502;SDS011;40411;50.090;21.954;2023-07-13T01:17:21;46.00;;;23.20;;
54502;SDS011;40411;50.090;21.954;2023-07-13T01:19:47;33.85;;;18.85;;
54502;SDS011;40411;50.090;21.954;2023-07-13T01:22:15;36.67;;;19.60;;
54502;SDS011;40411;50.090;21.954;2023-07-13T01:24:44;28.48;;;16.58;;
54502;SDS011;40411;50.090;21.954;2023-07-13T01:27:16;22.15;;;13.13;;
54502;SDS011;40411;50.090;21.954;2023-07-13T01:29:50;20.65;;;12.60;;
54502;SDS011;40411;50.090;21.954;2023-07-13T01:32:22;20.05;;;13.70;;
54502;SDS011;40411;50.090;21.954;2023-07-13T01:34:50;22.20;;;14.70;;
54502;SDS011;40411;50.090;21.954;2023-07-13T01:37:20;25.48;;;15.57;;
54502;SDS011;40411;50.090;21.954;2023-07-13T01:39:46;24.75;;;16.08;;
54502;SDS011;40411;50.090;21.954;2023-07-13T01:42:12;29.38;;;16.77;;
54502;SDS011;40411;50.090;21.954;2023-07-13T01:44:39;27.98;;;16.58;;
54502;SDS011;40411;50.090;21.954;2023-07-13T01:47:08;31.23;;;18.48;;
54502;SDS011;40411;50.090;21.954;2023-07-13T01:49:34;30.77;;;18.55;;
54502;SDS011;40411;50.090;21.954;2023-07-13T01:52:00;32.05;;;17.10;;
54502;SDS011;40411;50.090;21.954;2023-07-13T01:54:25;27.48;;;16.95;;
54502;SDS011;40411;50.090;21.954;2023-07-13T01:56:51;25.17;;;16.23;;
54502;SDS011;40411;50.090;21.954;2023-07-13T01:59:17;21.25;;;14.45;;
54502;SDS011;40411;50.090;21.954;2023-07-13T02:01:43;28.77;;;16.52;;
54502;SDS011;40411;50.090;21.954;2023-07-13T02:04:09;31.23;;;15.60;;
54502;SDS011;40411;50.090;21.954;2023-07-13T02:06:36;24.33;;;14.43;;
54502;SDS011;40411;50.090;21.954;2023-07-13T02:09:02;20.20;;;13.45;;
54502;SDS011;40411;50.090;21.954;2023-07-13T02:11:28;26.73;;;14.45;;
54502;SDS011;40411;50.090;21.954;2023-07-13T02:14:01;20.65;;;13.45;;
54502;SDS011;40411;50.090;21.954;2023-07-13T02:16:31;21.10;;;13.80;;
54502;SDS011;40411;50.090;21.954;2023-07-13T02:18:57;18.42;;;13.45;;
54502;SDS011;40411;50.090;21.954;2023-07-13T02:21:23;21.52;;;13.73;;
54502;SDS011;40411;50.090;21.954;2023-07-13T02:23:51;25.35;;;13.23;;
54502;SDS011;40411;50.090;21.954;2023-07-13T02:26:18;24.13;;;13.75;;
54502;SDS011;40411;50.090;21.954;2023-07-13T02:28:44;23.98;;;13.93;;
54502;SDS011;40411;50.090;21.954;2023-07-13T02:31:12;19.35;;;13.60;;
54502;SDS011;40411;50.090;21.954;2023-07-13T02:33:39;25.17;;;14.48;;
54502;SDS011;40411;50.090;21.954;2023-07-13T02:36:05;25.60;;;13.05;;
54502;SDS011;40411;50.090;21.954;2023-07-13T02:38:34;22.75;;;13.32;;
54502;SDS011;40411;50.090;21.954;2023-07-13T02:41:02;24.92;;;13.20;;
54502;SDS011;40411;50.090;21.954;2023-07-13T02:43:29;20.35;;;12.32;;
54502;SDS011;40411;50.090;21.954;2023-07-13T02:45:55;18.98;;;12.43;;
54502;SDS011;40411;50.090;21.954;2023-07-13T02:48:21;18.50;;;11.82;;
54502;SDS011;40411;50.090;21.954;2023-07-13T02:50:47;21.52;;;12.82;;
54502;SDS011;40411;50.090;21.954;2023-07-13T02:53:13;23.58;;;13.95;;
54502;SDS011;40411;50.090;21.954;2023-07-13T02:55:39;22.77;;;13.95;;
54502;SDS011;40411;50.090;21.954;2023-07-13T02:58:06;21.80;;;12.85;;
54502;SDS011;40411;50.090;21.954;2023-07-13T03:00:32;25.58;;;13.82;;
54502;SDS011;40411;50.090;21.954;2023-07-13T03:02:58;23.63;;;13.30;;
54502;SDS011;40411;50.090;21.954;2023-07-13T03:05:25;27.27;;;14.32;;
54502;SDS011;40411;50.090;21.954;2023-07-13T03:07:51;19.88;;;13.35;;
54502;SDS011;40411;50.090;21.954;2023-07-13T03:10:17;21.15;;;13.38;;
54502;SDS011;40411;50.090;21.954;2023-07-13T03:12:47;31.65;;;16.20;;
54502;SDS011;40411;50.090;21.954;2023-07-13T03:15:23;21.90;;;13.15;;
54502;SDS011;40411;50.090;21.954;2023-07-13T03:17:52;24.92;;;12.93;;
54502;SDS011;40411;50.090;21.954;2023-07-13T03:20:18;19.55;;;12.25;;
54502;SDS011;40411;50.090;21.954;2023-07-13T03:22:45;18.80;;;10.93;;
54502;SDS011;40411;50.090;21.954;2023-07-13T03:25:12;16.20;;;10.23;;
54502;SDS011;40411;50.090;21.954;2023-07-13T03:27:38;16.40;;;9.13;;
54502;SDS011;40411;50.090;21.954;2023-07-13T03:30:07;15.18;;;8.63;;
54502;SDS011;40411;50.090;21.954;2023-07-13T03:32:34;13.82;;;8.75;;
54502;SDS011;40411;50.090;21.954;2023-07-13T03:35:00;16.60;;;8.77;;
54502;SDS011;40411;50.090;21.954;2023-07-13T03:37:28;13.75;;;8.55;;
54502;SDS011;40411;50.090;21.954;2023-07-13T03:39:54;12.63;;;8.23;;
54502;SDS011;40411;50.090;21.954;2023-07-13T03:42:20;13.88;;;7.53;;
54502;SDS011;40411;50.090;21.954;2023-07-13T03:44:46;14.43;;;7.35;;
54502;SDS011;40411;50.090;21.954;2023-07-13T03:47:17;11.50;;;8.00;;
54502;SDS011;40411;50.090;21.954;2023-07-13T03:49:47;12.27;;;7.68;;
54502;SDS011;40411;50.090;21.954;2023-07-13T03:52:13;12.63;;;7.45;;
54502;SDS011;40411;50.090;21.954;2023-07-13T03:54:38;12.27;;;8.02;;
54502;SDS011;40411;50.090;21.954;2023-07-13T03:57:05;16.98;;;7.20;;
54502;SDS011;40411;50.090;21.954;2023-07-13T03:59:34;11.18;;;7.22;;
54502;SDS011;40411;50.090;21.954;2023-07-13T04:02:00;14.75;;;7.75;;
54502;SDS011;40411;50.090;21.954;2023-07-13T04:04:27;15.07;;;8.50;;
54502;SDS011;40411;50.090;21.954;2023-07-13T04:06:52;15.18;;;9.05;;
54502;SDS011;40411;50.090;21.954;2023-07-13T04:09:18;13.02;;;8.73;;
54502;SDS011;40411;50.090;21.954;2023-07-13T04:11:44;17.60;;;9.10;;
54502;SDS011;40411;50.090;21.954;2023-07-13T04:14:10;20.77;;;9.45;;
54502;SDS011;40411;50.090;21.954;2023-07-13T04:16:36;15.10;;;9.43;;
54502;SDS011;40411;50.090;21.954;2023-07-13T04:19:02;15.65;;;9.32;;
54502;SDS011;40411;50.090;21.954;2023-07-13T04:21:28;15.93;;;10.25;;
54502;SDS011;40411;50.090;21.954;2023-07-13T04:23:55;15.48;;;10.65;;
54502;SDS011;40411;50.090;21.954;2023-07-13T04:26:22;15.82;;;10.77;;
54502;SDS011;40411;50.090;21.954;2023-07-13T04:28:49;16.08;;;9.98;;
54502;SDS011;40411;50.090;21.954;2023-07-13T04:31:15;16.40;;;11.07;;
54502;SDS011;40411;50.090;21.954;2023-07-13T04:33:42;15.88;;;9.55;;
54502;SDS011;40411;50.090;21.954;2023-07-13T04:36:08;17.50;;;11.57;;
54502;SDS011;40411;50.090;21.954;2023-07-13T04:38:35;19.20;;;11.15;;
54502;SDS011;40411;50.090;21.954;2023-07-13T04:41:01;18.15;;;10.88;;
54502;SDS011;40411;50.090;21.954;2023-07-13T04:43:29;20.48;;;10.48;;
54502;SDS011;40411;50.090;21.954;2023-07-13T04:45:56;16.08;;;10.23;;
54502;SDS011;40411;50.090;21.954;2023-07-13T04:48:22;16.27;;;10.20;;
54502;SDS011;40411;50.090;21.954;2023-07-13T04:50:47;13.90;;;10.20;;
54502;SDS011;40411;50.090;21.954;2023-07-13T04:53:19;16.73;;;9.85;;
54502;SDS011;40411;50.090;21.954;2023-07-13T04:55:45;12.80;;;9.35;;
54502;SDS011;40411;50.090;21.954;2023-07-13T04:58:11;17.42;;;9.20;;
54502;SDS011;40411;50.090;21.954;2023-07-13T05:00:37;14.77;;;8.93;;
54502;SDS011;40411;50.090;21.954;2023-07-13T05:03:05;16.00;;;9.43;;
54502;SDS011;40411;50.090;21.954;2023-07-13T05:05:30;12.43;;;9.05;;
54502;SDS011;40411;50.090;21.954;2023-07-13T05:07:56;17.98;;;9.05;;
54502;SDS011;40411;50.090;21.954;2023-07-13T05:10:22;17.80;;;8.77;;
54502;SDS011;40411;50.090;21.954;2023-07-13T05:12:49;13.65;;;9.15;;
54502;SDS011;40411;50.090;21.954;2023-07-13T05:15:15;18.02;;;8.75;;
54502;SDS011;40411;50.090;21.954;2023-07-13T05:17:41;13.05;;;8.82;;
54502;SDS011;40411;50.090;21.954;2023-07-13T05:20:07;13.07;;;8.50;;
54502;SDS011;40411;50.090;21.954;2023-07-13T05:22:34;12.43;;;7.90;;
54502;SDS011;40411;50.090;21.954;2023-07-13T05:25:01;11.98;;;7.72;;
54502;SDS011;40411;50.090;21.954;2023-07-13T05:27:28;11.23;;;7.43;;
54502;SDS011;40411;50.090;21.954;2023-07-13T05:29:54;12.02;;;6.90;;
54502;SDS011;40411;50.090;21.954;2023-07-13T05:32:20;13.10;;;6.70;;
54502;SDS011;40411;50.090;21.954;2023-07-13T05:34:46;10.68;;;5.95;;
54502;SDS011;40411;50.090;21.954;2023-07-13T05:37:12;9.88;;;5.75;;
54502;SDS011;40411;50.090;21.954;2023-07-13T05:39:38;9.50;;;5.40;;
54502;SDS011;40411;50.090;21.954;2023-07-13T05:42:04;9.43;;;5.40;;
54502;SDS011;40411;50.090;21.954;2023-07-13T05:44:30;12.32;;;5.95;;
54502;SDS011;40411;50.090;21.954;2023-07-13T05:46:56;12.57;;;5.80;;
54502;SDS011;40411;50.090;21.954;2023-07-13T05:49:22;12.90;;;6.57;;
54502;SDS011;40411;50.090;21.954;2023-07-13T05:51:48;16.00;;;6.43;;
54502;SDS011;40411;50.090;21.954;2023-07-13T05:54:13;9.50;;;6.13;;
54502;SDS011;40411;50.090;21.954;2023-07-13T05:56:39;10.90;;;6.03;;
54502;SDS011;40411;50.090;21.954;2023-07-13T05:59:05;11.25;;;6.22;;
54502;SDS011;40411;50.090;21.954;2023-07-13T06:01:31;13.00;;;7.13;;
54502;SDS011;40411;50.090;21.954;2023-07-13T06:03:57;14.25;;;7.25;;
54502;SDS011;40411;50.090;21.954;2023-07-13T06:06:23;18.70;;;7.00;;
54502;SDS011;40411;50.090;21.954;2023-07-13T06:08:49;9.27;;;6.30;;
54502;SDS011;40411;50.090;21.954;2023-07-13T06:11:16;11.52;;;6.65;;
54502;SDS011;40411;50.090;21.954;2023-07-13T06:13:44;11.73;;;6.60;;
54502;SDS011;40411;50.090;21.954;2023-07-13T06:16:10;13.52;;;6.57;;
54502;SDS011;40411;50.090;21.954;2023-07-13T06:18:37;9.73;;;5.68;;
54502;SDS011;40411;50.090;21.954;2023-07-13T06:21:07;9.90;;;6.00;;
54502;SDS011;40411;50.090;21.954;2023-07-13T06:23:38;9.20;;;6.07;;
54502;SDS011;40411;50.090;21.954;2023-07-13T06:26:04;11.20;;;6.40;;
54502;SDS011;40411;50.090;21.954;2023-07-13T06:28:30;9.40;;;6.07;;
54502;SDS011;40411;50.090;21.954;2023-07-13T06:30:57;15.15;;;7.32;;
54502;SDS011;40411;50.090;21.954;2023-07-13T06:33:24;12.57;;;7.28;;
54502;SDS011;40411;50.090;21.954;2023-07-13T06:35:50;10.32;;;6.57;;
54502;SDS011;40411;50.090;21.954;2023-07-13T06:38:16;14.45;;;7.88;;
54502;SDS011;40411;50.090;21.954;2023-07-13T06:40:42;12.10;;;7.75;;
54502;SDS011;40411;50.090;21.954;2023-07-13T06:43:08;15.23;;;9.60;;
54502;SDS011;40411;50.090;21.954;2023-07-13T06:45:40;15.90;;;8.60;;
54502;SDS011;40411;50.090;21.954;2023-07-13T06:48:13;12.45;;;8.23;;
54502;SDS011;40411;50.090;21.954;2023-07-13T06:50:39;16.02;;;8.18;;
54502;SDS011;40411;50.090;21.954;2023-07-13T06:53:06;16.20;;;8.43;;
54502;SDS011;40411;50.090;21.954;2023-07-13T06:55:32;13.98;;;8.20;;
54502;SDS011;40411;50.090;21.954;2023-07-13T06:57:58;10.23;;;7.28;;
54502;SDS011;40411;50.090;21.954;2023-07-13T07:00:24;14.45;;;9.07;;
54502;SDS011;40411;50.090;21.954;2023-07-13T07:02:49;11.48;;;8.18;;
54502;SDS011;40411;50.090;21.954;2023-07-13T07:05:15;11.05;;;7.32;;
54502;SDS011;40411;50.090;21.954;2023-07-13T07:07:41;11.15;;;7.47;;
54502;SDS011;40411;50.090;21.954;2023-07-13T07:10:07;11.13;;;7.90;;
54502;SDS011;40411;50.090;21.954;2023-07-13T07:12:33;14.93;;;7.45;;
54502;SDS011;40411;50.090;21.954;2023-07-13T07:15:00;10.93;;;7.07;;
54502;SDS011;40411;50.090;21.954;2023-07-13T07:17:25;10.20;;;7.35;;
54502;SDS011;40411;50.090;21.954;2023-07-13T07:19:52;16.25;;;7.22;;
54502;SDS011;40411;50.090;21.954;2023-07-13T07:22:19;11.32;;;7.75;;
54502;SDS011;40411;50.090;21.954;2023-07-13T07:24:46;12.13;;;7.97;;
54502;SDS011;40411;50.090;21.954;2023-07-13T07:27:12;9.88;;;7.32;;
54502;SDS011;40411;50.090;21.954;2023-07-13T07:29:38;10.55;;;7.13;;
54502;SDS011;40411;50.090;21.954;2023-07-13T07:32:04;9.25;;;6.80;;
54502;SDS011;40411;50.090;21.954;2023-07-13T07:34:30;11.63;;;6.50;;
54502;SDS011;40411;50.090;21.954;2023-07-13T07:36:59;14.75;;;7.22;;
54502;SDS011;40411;50.090;21.954;2023-07-13T07:39:26;12.13;;;6.95;;
54502;SDS011;40411;50.090;21.954;2023-07-13T07:41:52;15.13;;;7.53;;
54502;SDS011;40411;50.090;21.954;2023-07-13T07:44:19;12.10;;;7.28;;
54502;SDS011;40411;50.090;21.954;2023-07-13T07:46:44;13.00;;;6.88;;
54502;SDS011;40411;50.090;21.954;2023-07-13T07:49:10;11.93;;;7.15;;
54502;SDS011;40411;50.090;21.954;2023-07-13T07:51:36;9.82;;;6.97;;
54502;SDS011;40411;50.090;21.954;2023-07-13T07:54:03;12.88;;;7.53;;
54502;SDS011;40411;50.090;21.954;2023-07-13T07:56:29;10.93;;;7.75;;
54502;SDS011;40411;50.090;21.954;2023-07-13T07:58:55;11.45;;;7.57;;
54502;SDS011;40411;50.090;21.954;2023-07-13T08:01:21;13.73;;;7.03;;
54502;SDS011;40411;50.090;21.954;2023-07-13T08:03:47;12.77;;;7.35;;
54502;SDS011;40411;50.090;21.954;2023-07-13T08:06:13;9.88;;;6.88;;
54502;SDS011;40411;50.090;21.954;2023-07-13T08:08:40;10.77;;;7.22;;
54502;SDS011;40411;50.090;21.954;2023-07-13T08:11:06;10.02;;;6.68;;
54502;SDS011;40411;50.090;21.954;2023-07-13T08:13:34;10.68;;;6.88;;
54502;SDS011;40411;50.090;21.954;2023-07-13T08:16:00;11.38;;;7.65;;
54502;SDS011;40411;50.090;21.954;2023-07-13T08:18:26;11.88;;;7.47;;
54502;SDS011;40411;50.090;21.954;2023-07-13T08:20:55;14.43;;;7.43;;
54502;SDS011;40411;50.090;21.954;2023-07-13T08:23:22;9.32;;;6.60;;
54502;SDS011;40411;50.090;21.954;2023-07-13T08:25:51;10.60;;;6.60;;
54502;SDS011;40411;50.090;21.954;2023-07-13T08:28:19;10.35;;;5.93;;
54502;SDS011;40411;50.090;21.954;2023-07-13T08:30:45;10.52;;;5.85;;
54502;SDS011;40411;50.090;21.954;2023-07-13T08:33:18;7.93;;;5.70;;
54502;SDS011;40411;50.090;21.954;2023-07-13T08:35:46;13.27;;;5.88;;
54502;SDS011;40411;50.090;21.954;2023-07-13T08:38:13;11.60;;;6.28;;
54502;SDS011;40411;50.090;21.954;2023-07-13T08:40:39;9.25;;;5.45;;
54502;SDS011;40411;50.090;21.954;2023-07-13T08:43:08;12.40;;;6.55;;
54502;SDS011;40411;50.090;21.954;2023-07-13T08:45:49;10.82;;;6.65;;
54502;SDS011;40411;50.090;21.954;2023-07-13T08:48:35;10.00;;;6.35;;
54502;SDS011;40411;50.090;21.954;2023-07-13T08:53:40;9.40;;;7.00;;
54502;SDS011;40411;50.090;21.954;2023-07-13T08:56:16;11.60;;;5.80;;
54502;SDS011;40411;50.090;21.954;2023-07-13T08:58:44;12.65;;;6.32;;
54502;SDS011;40411;50.090;21.954;2023-07-13T09:04:21;14.80;;;6.00;;
54502;SDS011;40411;50.090;21.954;2023-07-13T09:15:02;9.35;;;6.00;;
54502;SDS011;40411;50.090;21.954;2023-07-13T09:17:40;7.40;;;5.15;;
54502;SDS011;40411;50.090;21.954;2023-07-13T09:20:20;10.75;;;5.97;;
54502;SDS011;40411;50.090;21.954;2023-07-13T09:23:07;9.40;;;5.35;;
54502;SDS011;40411;50.090;21.954;2023-07-13T09:25:39;8.98;;;5.20;;
54502;SDS011;40411;50.090;21.954;2023-07-13T09:28:19;11.40;;;4.85;;
54502;SDS011;40411;50.090;21.954;2023-07-13T09:30:56;9.35;;;4.40;;
54502;SDS011;40411;50.090;21.954;2023-07-13T09:33:24;10.43;;;4.70;;
54502;SDS011;40411;50.090;21.954;2023-07-13T09:35:50;10.23;;;7.10;;
54502;SDS011;40411;50.090;21.954;2023-07-13T09:38:17;8.98;;;4.85;;
54502;SDS011;40411;50.090;21.954;2023-07-13T09:43:31;9.60;;;4.57;;
54502;SDS011;40411;50.090;21.954;2023-07-13T09:45:57;10.23;;;3.90;;
54502;SDS011;40411;50.090;21.954;2023-07-13T09:48:22;7.15;;;3.85;;
54502;SDS011;40411;50.090;21.954;2023-07-13T09:50:50;26.30;;;5.72;;
54502;SDS011;40411;50.090;21.954;2023-07-13T09:53:21;7.20;;;4.00;;
54502;SDS011;40411;50.090;21.954;2023-07-13T09:55:49;8.05;;;4.05;;
54502;SDS011;40411;50.090;21.954;2023-07-13T09:58:22;7.05;;;4.18;;
54502;SDS011;40411;50.090;21.954;2023-07-13T10:01:25;6.10;;;3.78;;
54502;SDS011;40411;50.090;21.954;2023-07-13T10:03:56;10.32;;;5.03;;
54502;SDS011;40411;50.090;21.954;2023-07-13T10:06:23;7.60;;;4.40;;
54502;SDS011;40411;50.090;21.954;2023-07-13T10:08:52;9.30;;;5.07;;
54502;SDS011;40411;50.090;21.954;2023-07-13T10:11:22;7.40;;;4.68;;
54502;SDS011;40411;50.090;21.954;2023-07-13T10:13:54;7.90;;;4.60;;
54502;SDS011;40411;50.090;21.954;2023-07-13T10:16:26;7.07;;;4.55;;
54502;SDS011;40411;50.090;21.954;2023-07-13T10:19:05;12.95;;;5.13;;
54502;SDS011;40411;50.090;21.954;2023-07-13T10:21:43;9.48;;;4.68;;
54502;SDS011;40411;50.090;21.954;2023-07-13T10:24:25;16.80;;;4.93;;
54502;SDS011;40411;50.090;21.954;2023-07-13T10:27:02;6.97;;;4.38;;
54502;SDS011;40411;50.090;21.954;2023-07-13T10:29:59;11.95;;;4.90;;
54502;SDS011;40411;50.090;21.954;2023-07-13T10:32:34;10.43;;;4.55;;
54502;SDS011;40411;50.090;21.954;2023-07-13T10:35:01;7.72;;;4.80;;
54502;SDS011;40411;50.090;21.954;2023-07-13T10:37:37;9.07;;;4.50;;
54502;SDS011;40411;50.090;21.954;2023-07-13T10:40:13;11.57;;;4.65;;
54502;SDS011;40411;50.090;21.954;2023-07-13T10:42:44;9.90;;;5.32;;
54502;SDS011;40411;50.090;21.954;2023-07-13T10:45:17;8.80;;;5.20;;
54502;SDS011;40411;50.090;21.954;2023-07-13T10:47:45;12.75;;;5.40;;
54502;SDS011;40411;50.090;21.954;2023-07-13T10:50:17;10.23;;;5.60;;
54502;SDS011;40411;50.090;21.954;2023-07-13T10:52:48;9.15;;;5.38;;
54502;SDS011;40411;50.090;21.954;2023-07-13T10:58:13;11.70;;;5.15;;
54502;SDS011;40411;50.090;21.954;2023-07-13T11:00:47;10.02;;;4.95;;
54502;SDS011;40411;50.090;21.954;2023-07-13T11:03:19;7.28;;;4.60;;
54502;SDS011;40411;50.090;21.954;2023-07-13T11:05:48;8.77;;;4.75;;
54502;SDS011;40411;50.090;21.954;2023-07-13T11:08:32;14.63;;;4.80;;
54502;SDS011;40411;50.090;21.954;2023-07-13T11:11:02;12.15;;;4.85;;
54502;SDS011;40411;50.090;21.954;2023-07-13T11:16:12;9.65;;;4.45;;
54502;SDS011;40411;50.090;21.954;2023-07-13T11:18:39;7.03;;;4.90;;
54502;SDS011;40411;50.090;21.954;2023-07-13T11:21:15;15.90;;;4.90;;
54502;SDS011;40411;50.090;21.954;2023-07-13T11:23:42;12.00;;;4.97;;
54502;SDS011;40411;50.090;21.954;2023-07-13T11:31:51;10.60;;;4.70;;
54502;SDS011;40411;50.090;21.954;2023-07-13T11:34:21;7.93;;;4.68;;
54502;SDS011;40411;50.090;21.954;2023-07-13T11:36:52;7.43;;;4.53;;
54502;SDS011;40411;50.090;21.954;2023-07-13T11:42:08;7.47;;;4.50;;
54502;SDS011;40411;50.090;21.954;2023-07-13T11:44:42;11.77;;;5.05;;
54502;SDS011;40411;50.090;21.954;2023-07-13T11:47:10;9.85;;;4.55;;
54502;SDS011;40411;50.090;21.954;2023-07-13T11:49:48;16.63;;;5.05;;
54502;SDS011;40411;50.090;21.954;2023-07-13T11:52:31;8.85;;;5.07;;
54502;SDS011;40411;50.090;21.954;2023-07-13T11:55:00;7.97;;;4.65;;
54502;SDS011;40411;50.090;21.954;2023-07-13T11:57:28;12.75;;;4.88;;
54502;SDS011;40411;50.090;21.954;2023-07-13T12:00:04;10.00;;;4.82;;
54502;SDS011;40411;50.090;21.954;2023-07-13T12:02:41;9.50;;;5.40;;
54502;SDS011;40411;50.090;21.954;2023-07-13T12:05:11;9.55;;;5.95;;
54502;SDS011;40411;50.090;21.954;2023-07-13T12:07:43;10.65;;;5.05;;
54502;SDS011;40411;50.090;21.954;2023-07-13T12:10:21;16.45;;;6.50;;
54502;SDS011;40411;50.090;21.954;2023-07-13T12:13:02;16.38;;;6.00;;
54502;SDS011;40411;50.090;21.954;2023-07-13T12:15:35;14.48;;;6.47;;
54502;SDS011;40411;50.090;21.954;2023-07-13T12:18:11;14.85;;;7.90;;
54502;SDS011;40411;50.090;21.954;2023-07-13T12:20:40;15.95;;;8.45;;
54502;SDS011;40411;50.090;21.954;2023-07-13T12:23:07;13.57;;;8.43;;
54502;SDS011;40411;50.090;21.954;2023-07-13T12:25:52;13.63;;;6.97;;
54502;SDS011;40411;50.090;21.954;2023-07-13T12:28:35;12.00;;;6.63;;
54502;SDS011;40411;50.090;21.954;2023-07-13T12:31:04;11.10;;;7.55;;
54502;SDS011;40411;50.090;21.954;2023-07-13T12:33:32;11.70;;;7.00;;
54502;SDS011;40411;50.090;21.954;2023-07-13T12:36:03;12.48;;;6.78;;
54502;SDS011;40411;50.090;21.954;2023-07-13T12:38:31;10.73;;;5.97;;
54502;SDS011;40411;50.090;21.954;2023-07-13T12:40:58;10.18;;;5.45;;
54502;SDS011;40411;50.090;21.954;2023-07-13T12:43:24;13.75;;;5.63;;
54502;SDS011;40411;50.090;21.954;2023-07-13T12:46:01;14.02;;;5.15;;
54502;SDS011;40411;50.090;21.954;2023-07-13T12:48:28;9.43;;;5.63;;
54502;SDS011;40411;50.090;21.954;2023-07-13T12:50:55;11.68;;;5.65;;
54502;SDS011;40411;50.090;21.954;2023-07-13T12:53:29;7.93;;;5.25;;
54502;SDS011;40411;50.090;21.954;2023-07-13T12:56:01;13.50;;;5.95;;
54502;SDS011;40411;50.090;21.954;2023-07-13T12:58:32;9.77;;;6.10;;
54502;SDS011;40411;50.090;21.954;2023-07-13T13:01:10;12.25;;;6.68;;
54502;SDS011;40411;50.090;21.954;2023-07-13T13:03:39;14.18;;;8.55;;
54502;SDS011;40411;50.090;21.954;2023-07-13T13:08:41;14.52;;;5.50;;
54502;SDS011;40411;50.090;21.954;2023-07-13T13:11:09;9.20;;;5.18;;
54502;SDS011;40411;50.090;21.954;2023-07-13T13:13:35;10.68;;;5.97;;
54502;SDS011;40411;50.090;21.954;2023-07-13T13:16:02;7.20;;;4.70;;
54502;SDS011;40411;50.090;21.954;2023-07-13T13:18:34;10.07;;;4.50;;
54502;SDS011;40411;50.090;21.954;2023-07-13T13:21:01;6.63;;;3.88;;
54502;SDS011;40411;50.090;21.954;2023-07-13T13:23:28;7.95;;;3.80;;
54502;SDS011;40411;50.090;21.954;2023-07-13T13:25:53;5.85;;;3.83;;
54502;SDS011;40411;50.090;21.954;2023-07-13T13:28:20;5.78;;;3.28;;
54502;SDS011;40411;50.090;21.954;2023-07-13T13:30:47;8.10;;;4.07;;
54502;SDS011;40411;50.090;21.954;2023-07-13T13:33:16;8.27;;;3.90;;
54502;SDS011;40411;50.090;21.954;2023-07-13T13:35:44;8.07;;;3.58;;
54502;SDS011;40411;50.090;21.954;2023-07-13T13:38:11;7.30;;;3.05;;
54502;SDS011;40411;50.090;21.954;2023-07-13T13:40:40;5.03;;;2.90;;
54502;SDS011;40411;50.090;21.954;2023-07-13T13:43:16;5.32;;;1.88;;
54502;SDS011;40411;50.090;21.954;2023-07-13T13:45:44;5.70;;;2.50;;
54502;SDS011;40411;50.090;21.954;2023-07-13T13:48:18;5.40;;;2.45;;
54502;SDS011;40411;50.090;21.954;2023-07-13T13:50:47;4.80;;;2.22;;
54502;SDS011;40411;50.090;21.954;2023-07-13T13:53:13;3.92;;;1.80;;
54502;SDS011;40411;50.090;21.954;2023-07-13T13:55:40;5.68;;;2.42;;
54502;SDS011;40411;50.090;21.954;2023-07-13T13:58:07;5.68;;;2.25;;
54502;SDS011;40411;50.090;21.954;2023-07-13T14:00:35;9.95;;;2.35;;
54502;SDS011;40411;50.090;21.954;2023-07-13T14:03:04;5.50;;;2.10;;
54502;SDS011;40411;50.090;21.954;2023-07-13T14:05:32;5.80;;;2.53;;
54502;SDS011;40411;50.090;21.954;2023-07-13T14:07:58;5.38;;;2.38;;
54502;SDS011;40411;50.090;21.954;2023-07-13T14:10:25;5.40;;;2.72;;
54502;SDS011;40411;50.090;21.954;2023-07-13T14:12:53;4.78;;;1.85;;
54502;SDS011;40411;50.090;21.954;2023-07-13T14:15:28;10.43;;;2.78;;
54502;SDS011;40411;50.090;21.954;2023-07-13T14:17:57;5.68;;;2.38;;
54502;SDS011;40411;50.090;21.954;2023-07-13T14:20:24;4.95;;;2.65;;
54502;SDS011;40411;50.090;21.954;2023-07-13T14:22:51;3.88;;;1.98;;
54502;SDS011;40411;50.090;21.954;2023-07-13T14:25:19;4.75;;;2.28;;
54502;SDS011;40411;50.090;21.954;2023-07-13T14:27:46;6.68;;;2.65;;
54502;SDS011;40411;50.090;21.954;2023-07-13T14:30:18;6.63;;;2.42;;
54502;SDS011;40411;50.090;21.954;2023-07-13T14:32:46;4.30;;;2.10;;
54502;SDS011;40411;50.090;21.954;2023-07-13T14:35:15;6.20;;;2.53;;
54502;SDS011;40411;50.090;21.954;2023-07-13T14:37:43;6.40;;;2.35;;
54502;SDS011;40411;50.090;21.954;2023-07-13T14:40:29;5.03;;;2.13;;
54502;SDS011;40411;50.090;21.954;2023-07-13T14:42:56;5.85;;;2.38;;
54502;SDS011;40411;50.090;21.954;2023-07-13T14:45:23;9.10;;;2.60;;
54502;SDS011;40411;50.090;21.954;2023-07-13T14:47:49;4.60;;;2.05;;
54502;SDS011;40411;50.090;21.954;2023-07-13T14:50:19;10.05;;;2.53;;
54502;SDS011;40411;50.090;21.954;2023-07-13T14:52:49;6.68;;;2.20;;
54502;SDS011;40411;50.090;21.954;2023-07-13T14:55:16;5.03;;;2.30;;
54502;SDS011;40411;50.090;21.954;2023-07-13T14:57:43;5.05;;;1.88;;
54502;SDS011;40411;50.090;21.954;2023-07-13T15:00:15;9.80;;;3.22;;
54502;SDS011;40411;50.090;21.954;2023-07-13T15:02:47;4.82;;;1.92;;
54502;SDS011;40411;50.090;21.954;2023-07-13T15:05:17;4.47;;;2.00;;